sensor_id;sensor_type;location;lat;lon;timestamp;temperature;humidity
12847;DHT22;6492;48.128;8.320;2024-03-06T00:02:46;2.10;67.50
12847;DHT22;6492;48.128;8.320;2024-03-06T00:06:48;2.10;67.20
12847;DHT22;6492;48.128;8.320;2024-03-06T00:10:52;2.00;66.90
12847;DHT22;6492;48.128;8.320;2024-03-06T00:14:54;2.00;66.80
12847;DHT22;6492;48.128;8.320;2024-03-06T00:18:57;2.00;66.90
12847;DHT22;6492;48.128;8.320;2024-03-06T00:22:58;2.00;67.00
12847;DHT22;6492;48.128;8.320;2024-03-06T00:27:00;2.00;67.00
12847;DHT22;6492;48.128;8.320;2024-03-06T00:31:05;1.90;67.20
12847;DHT22;6492;48.128;8.320;2024-03-06T00:35:08;2.00;68.00
12847;DHT22;6492;48.128;8.320;2024-03-06T00:39:12;2.00;68.10
12847;DHT22;6492;48.128;8.320;2024-03-06T00:43:15;2.00;68.50
12847;DHT22;6492;48.128;8.320;2024-03-06T00:47:19;2.00;68.40
12847;DHT22;6492;48.128;8.320;2024-03-06T00:51:23;2.00;68.40
12847;DHT22;6492;48.128;8.320;2024-03-06T00:55:25;1.90;68.40
12847;DHT22;6492;48.128;8.320;2024-03-06T00:59:27;2.00;68.60
12847;DHT22;6492;48.128;8.320;2024-03-06T01:03:29;2.00;69.80
12847;DHT22;6492;48.128;8.320;2024-03-06T01:07:33;2.00;69.10
12847;DHT22;6492;48.128;8.320;2024-03-06T01:11:35;2.10;70.10
12847;DHT22;6492;48.128;8.320;2024-03-06T01:15:37;2.10;69.40
12847;DHT22;6492;48.128;8.320;2024-03-06T01:19:39;2.00;69.10
12847;DHT22;6492;48.128;8.320;2024-03-06T01:23:42;2.00;69.10
12847;DHT22;6492;48.128;8.320;2024-03-06T01:27:43;2.00;68.90
12847;DHT22;6492;48.128;8.320;2024-03-06T01:31:45;2.00;69.00
12847;DHT22;6492;48.128;8.320;2024-03-06T01:35:47;2.00;69.10
12847;DHT22;6492;48.128;8.320;2024-03-06T01:39:50;2.00;69.40
12847;DHT22;6492;48.128;8.320;2024-03-06T01:43:52;2.00;69.40
12847;DHT22;6492;48.128;8.320;2024-03-06T01:47:54;2.00;69.30
12847;DHT22;6492;48.128;8.320;2024-03-06T01:51:57;2.00;69.70
12847;DHT22;6492;48.128;8.320;2024-03-06T01:56:02;2.00;69.70
12847;DHT22;6492;48.128;8.320;2024-03-06T02:00:06;2.00;69.70
12847;DHT22;6492;48.128;8.320;2024-03-06T02:04:09;2.00;69.30
12847;DHT22;6492;48.128;8.320;2024-03-06T02:08:11;2.00;68.90
12847;DHT22;6492;48.128;8.320;2024-03-06T02:12:14;2.00;69.00
12847;DHT22;6492;48.128;8.320;2024-03-06T02:16:16;2.00;69.00
12847;DHT22;6492;48.128;8.320;2024-03-06T02:20:22;2.00;69.30
12847;DHT22;6492;48.128;8.320;2024-03-06T02:24:24;2.00;69.10
12847;DHT22;6492;48.128;8.320;2024-03-06T02:28:25;2.00;68.90
12847;DHT22;6492;48.128;8.320;2024-03-06T02:32:27;2.00;68.70
12847;DHT22;6492;48.128;8.320;2024-03-06T02:36:30;2.00;68.80
12847;DHT22;6492;48.128;8.320;2024-03-06T02:40:32;2.00;68.70
12847;DHT22;6492;48.128;8.320;2024-03-06T02:44:34;2.00;68.90
12847;DHT22;6492;48.128;8.320;2024-03-06T02:48:36;2.00;69.10
12847;DHT22;6492;48.128;8.320;2024-03-06T02:52:40;1.90;68.90
12847;DHT22;6492;48.128;8.320;2024-03-06T02:56:41;1.90;69.00
12847;DHT22;6492;48.128;8.320;2024-03-06T03:00:43;1.90;69.10
12847;DHT22;6492;48.128;8.320;2024-03-06T03:04:45;1.90;69.20
12847;DHT22;6492;48.128;8.320;2024-03-06T03:08:48;1.90;69.10
12847;DHT22;6492;48.128;8.320;2024-03-06T03:12:50;1.90;69.50
12847;DHT22;6492;48.128;8.320;2024-03-06T03:16:53;1.90;69.50
12847;DHT22;6492;48.128;8.320;2024-03-06T03:20:55;1.80;69.70
12847;DHT22;6492;48.128;8.320;2024-03-06T03:24:58;1.90;69.80
12847;DHT22;6492;48.128;8.320;2024-03-06T03:29:00;1.90;69.70
12847;DHT22;6492;48.128;8.320;2024-03-06T03:33:01;1.90;69.80
12847;DHT22;6492;48.128;8.320;2024-03-06T03:37:03;1.90;70.00
12847;DHT22;6492;48.128;8.320;2024-03-06T03:41:08;1.90;69.80
12847;DHT22;6492;48.128;8.320;2024-03-06T03:45:10;1.90;69.90
12847;DHT22;6492;48.128;8.320;2024-03-06T03:49:12;1.90;69.90
12847;DHT22;6492;48.128;8.320;2024-03-06T03:53:14;1.90;69.90
12847;DHT22;6492;48.128;8.320;2024-03-06T03:57:17;1.80;69.90
12847;DHT22;6492;48.128;8.320;2024-03-06T04:01:19;1.80;70.00
12847;DHT22;6492;48.128;8.320;2024-03-06T04:05:21;1.80;70.30
12847;DHT22;6492;48.128;8.320;2024-03-06T04:09:23;1.80;70.40
12847;DHT22;6492;48.128;8.320;2024-03-06T04:13:26;1.80;70.50
12847;DHT22;6492;48.128;8.320;2024-03-06T04:17:28;1.80;70.50
12847;DHT22;6492;48.128;8.320;2024-03-06T04:21:30;1.80;70.40
12847;DHT22;6492;48.128;8.320;2024-03-06T04:25:31;1.80;70.40
12847;DHT22;6492;48.128;8.320;2024-03-06T04:29:34;1.70;70.50
12847;DHT22;6492;48.128;8.320;2024-03-06T04:33:36;1.70;70.60
12847;DHT22;6492;48.128;8.320;2024-03-06T04:37:38;1.70;70.50
12847;DHT22;6492;48.128;8.320;2024-03-06T04:41:40;1.70;70.50
12847;DHT22;6492;48.128;8.320;2024-03-06T04:45:43;1.70;70.60
12847;DHT22;6492;48.128;8.320;2024-03-06T04:49:45;1.70;70.70
12847;DHT22;6492;48.128;8.320;2024-03-06T04:53:47;1.70;70.80
12847;DHT22;6492;48.128;8.320;2024-03-06T04:57:49;1.70;70.90
12847;DHT22;6492;48.128;8.320;2024-03-06T05:01:52;1.60;70.80
12847;DHT22;6492;48.128;8.320;2024-03-06T05:05:54;1.60;71.40
12847;DHT22;6492;48.128;8.320;2024-03-06T05:09:56;1.60;70.30
12847;DHT22;6492;48.128;8.320;2024-03-06T05:13:59;1.60;70.30
12847;DHT22;6492;48.128;8.320;2024-03-06T05:18:02;1.60;70.40
12847;DHT22;6492;48.128;8.320;2024-03-06T05:22:04;1.50;70.40
12847;DHT22;6492;48.128;8.320;2024-03-06T05:26:06;1.50;70.30
12847;DHT22;6492;48.128;8.320;2024-03-06T05:30:09;1.50;70.50
12847;DHT22;6492;48.128;8.320;2024-03-06T05:34:12;1.50;70.50
12847;DHT22;6492;48.128;8.320;2024-03-06T05:38:17;1.40;70.40
12847;DHT22;6492;48.128;8.320;2024-03-06T05:42:19;1.40;70.50
12847;DHT22;6492;48.128;8.320;2024-03-06T05:46:21;1.40;70.70
12847;DHT22;6492;48.128;8.320;2024-03-06T05:50:24;1.40;70.80
12847;DHT22;6492;48.128;8.320;2024-03-06T05:54:26;1.40;70.90
12847;DHT22;6492;48.128;8.320;2024-03-06T05:58:28;1.30;70.90
12847;DHT22;6492;48.128;8.320;2024-03-06T06:02:29;1.30;71.00
12847;DHT22;6492;48.128;8.320;2024-03-06T06:06:32;1.30;70.90
12847;DHT22;6492;48.128;8.320;2024-03-06T06:10:34;1.30;71.00
12847;DHT22;6492;48.128;8.320;2024-03-06T06:14:36;1.30;71.30
12847;DHT22;6492;48.128;8.320;2024-03-06T06:18:40;1.30;71.30
12847;DHT22;6492;48.128;8.320;2024-03-06T06:22:45;1.30;71.50
12847;DHT22;6492;48.128;8.320;2024-03-06T06:26:47;1.30;71.70
12847;DHT22;6492;48.128;8.320;2024-03-06T06:30:49;1.30;71.60
12847;DHT22;6492;48.128;8.320;2024-03-06T06:34:52;1.30;71.70
12847;DHT22;6492;48.128;8.320;2024-03-06T06:38:55;1.30;71.80
12847;DHT22;6492;48.128;8.320;2024-03-06T06:42:57;1.30;72.00
12847;DHT22;6492;48.128;8.320;2024-03-06T06:46:59;1.20;71.80
12847;DHT22;6492;48.128;8.320;2024-03-06T06:51:01;1.20;72.00
12847;DHT22;6492;48.128;8.320;2024-03-06T06:55:05;1.20;72.10
12847;DHT22;6492;48.128;8.320;2024-03-06T06:59:07;1.20;72.80
12847;DHT22;6492;48.128;8.320;2024-03-06T07:03:09;1.20;72.80
12847;DHT22;6492;48.128;8.320;2024-03-06T07:07:11;1.20;72.00
12847;DHT22;6492;48.128;8.320;2024-03-06T07:11:16;1.10;72.10
12847;DHT22;6492;48.128;8.320;2024-03-06T07:15:18;1.10;72.00
12847;DHT22;6492;48.128;8.320;2024-03-06T07:19:20;1.10;71.80
12847;DHT22;6492;48.128;8.320;2024-03-06T07:23:22;1.00;71.70
12847;DHT22;6492;48.128;8.320;2024-03-06T07:27:25;1.00;71.70
12847;DHT22;6492;48.128;8.320;2024-03-06T07:31:27;1.10;72.00
12847;DHT22;6492;48.128;8.320;2024-03-06T07:35:29;1.00;71.80
12847;DHT22;6492;48.128;8.320;2024-03-06T07:39:31;1.00;71.90
12847;DHT22;6492;48.128;8.320;2024-03-06T07:43:34;1.00;71.60
12847;DHT22;6492;48.128;8.320;2024-03-06T07:47:36;1.00;71.50
12847;DHT22;6492;48.128;8.320;2024-03-06T07:51:38;1.00;71.30
12847;DHT22;6492;48.128;8.320;2024-03-06T07:55:45;1.00;71.20
12847;DHT22;6492;48.128;8.320;2024-03-06T07:59:48;1.00;71.20
12847;DHT22;6492;48.128;8.320;2024-03-06T08:03:50;1.00;71.40
12847;DHT22;6492;48.128;8.320;2024-03-06T08:07:51;1.00;71.40
12847;DHT22;6492;48.128;8.320;2024-03-06T08:11:54;1.00;71.10
12847;DHT22;6492;48.128;8.320;2024-03-06T08:15:57;1.00;70.80
12847;DHT22;6492;48.128;8.320;2024-03-06T08:19:59;1.00;70.70
12847;DHT22;6492;48.128;8.320;2024-03-06T08:24:00;1.00;70.50
12847;DHT22;6492;48.128;8.320;2024-03-06T08:28:02;1.00;70.60
12847;DHT22;6492;48.128;8.320;2024-03-06T08:32:07;1.10;70.90
12847;DHT22;6492;48.128;8.320;2024-03-06T08:36:09;1.20;71.20
12847;DHT22;6492;48.128;8.320;2024-03-06T08:40:11;1.30;71.40
12847;DHT22;6492;48.128;8.320;2024-03-06T08:44:15;1.40;70.90
12847;DHT22;6492;48.128;8.320;2024-03-06T08:48:20;1.50;71.30
12847;DHT22;6492;48.128;8.320;2024-03-06T08:52:22;1.50;70.20
12847;DHT22;6492;48.128;8.320;2024-03-06T08:56:24;1.60;69.50
12847;DHT22;6492;48.128;8.320;2024-03-06T09:00:25;1.70;68.50
12847;DHT22;6492;48.128;8.320;2024-03-06T09:04:29;1.80;67.90
12847;DHT22;6492;48.128;8.320;2024-03-06T09:08:30;1.90;67.00
12847;DHT22;6492;48.128;8.320;2024-03-06T09:12:32;2.00;66.20
12847;DHT22;6492;48.128;8.320;2024-03-06T09:16:34;2.10;65.40
12847;DHT22;6492;48.128;8.320;2024-03-06T09:20:37;2.20;64.90
12847;DHT22;6492;48.128;8.320;2024-03-06T09:24:39;2.20;62.40
12847;DHT22;6492;48.128;8.320;2024-03-06T09:28:41;2.30;62.30
12847;DHT22;6492;48.128;8.320;2024-03-06T09:32:44;2.40;60.80
12847;DHT22;6492;48.128;8.320;2024-03-06T09:36:49;2.50;60.80
12847;DHT22;6492;48.128;8.320;2024-03-06T09:40:50;2.60;58.90
12847;DHT22;6492;48.128;8.320;2024-03-06T09:44:52;2.60;56.50
12847;DHT22;6492;48.128;8.320;2024-03-06T09:48:54;2.70;56.80
12847;DHT22;6492;48.128;8.320;2024-03-06T09:52:58;2.90;56.20
12847;DHT22;6492;48.128;8.320;2024-03-06T09:57:01;3.00;55.80
12847;DHT22;6492;48.128;8.320;2024-03-06T10:01:03;3.20;54.20
12847;DHT22;6492;48.128;8.320;2024-03-06T10:05:20;3.20;52.70
12847;DHT22;6492;48.128;8.320;2024-03-06T10:09:24;3.30;52.60
12847;DHT22;6492;48.128;8.320;2024-03-06T10:13:27;3.40;52.60
12847;DHT22;6492;48.128;8.320;2024-03-06T10:17:30;3.70;52.50
12847;DHT22;6492;48.128;8.320;2024-03-06T10:21:32;3.60;49.80
12847;DHT22;6492;48.128;8.320;2024-03-06T10:25:35;3.70;50.10
12847;DHT22;6492;48.128;8.320;2024-03-06T10:29:37;3.70;49.40
12847;DHT22;6492;48.128;8.320;2024-03-06T10:33:39;3.60;47.70
12847;DHT22;6492;48.128;8.320;2024-03-06T10:37:42;3.80;49.30
12847;DHT22;6492;48.128;8.320;2024-03-06T10:41:50;4.00;47.60
12847;DHT22;6492;48.128;8.320;2024-03-06T10:45:59;4.00;44.70
12847;DHT22;6492;48.128;8.320;2024-03-06T10:50:04;4.00;45.40
12847;DHT22;6492;48.128;8.320;2024-03-06T10:54:11;4.00;43.00
12847;DHT22;6492;48.128;8.320;2024-03-06T10:58:16;3.90;44.30
12847;DHT22;6492;48.128;8.320;2024-03-06T11:02:19;3.90;45.20
12847;DHT22;6492;48.128;8.320;2024-03-06T11:06:23;3.70;43.10
12847;DHT22;6492;48.128;8.320;2024-03-06T11:10:32;3.60;43.90
12847;DHT22;6492;48.128;8.320;2024-03-06T11:14:39;3.50;46.00
12847;DHT22;6492;48.128;8.320;2024-03-06T11:18:41;3.40;46.80
12847;DHT22;6492;48.128;8.320;2024-03-06T11:23:02;3.30;46.80
12847;DHT22;6492;48.128;8.320;2024-03-06T11:27:09;3.20;47.60
12847;DHT22;6492;48.128;8.320;2024-03-06T11:31:19;3.20;47.70
12847;DHT22;6492;48.128;8.320;2024-03-06T11:35:22;3.10;47.30
12847;DHT22;6492;48.128;8.320;2024-03-06T11:39:24;3.00;47.30
12847;DHT22;6492;48.128;8.320;2024-03-06T11:43:26;2.90;47.70
12847;DHT22;6492;48.128;8.320;2024-03-06T11:47:29;2.90;48.60
12847;DHT22;6492;48.128;8.320;2024-03-06T11:51:31;2.70;49.20
12847;DHT22;6492;48.128;8.320;2024-03-06T11:55:33;2.70;51.10
12847;DHT22;6492;48.128;8.320;2024-03-06T11:59:36;2.70;51.70
12847;DHT22;6492;48.128;8.320;2024-03-06T12:03:41;2.80;52.60
12847;DHT22;6492;48.128;8.320;2024-03-06T12:07:46;2.80;53.10
12847;DHT22;6492;48.128;8.320;2024-03-06T12:11:48;2.90;54.10
12847;DHT22;6492;48.128;8.320;2024-03-06T12:15:50;2.90;53.50
12847;DHT22;6492;48.128;8.320;2024-03-06T12:19:55;2.80;52.60
12847;DHT22;6492;48.128;8.320;2024-03-06T12:24:03;2.80;53.10
12847;DHT22;6492;48.128;8.320;2024-03-06T12:28:07;2.90;54.70
12847;DHT22;6492;48.128;8.320;2024-03-06T12:32:16;3.00;55.20
12847;DHT22;6492;48.128;8.320;2024-03-06T12:36:25;3.10;54.70
12847;DHT22;6492;48.128;8.320;2024-03-06T12:40:27;3.30;53.50
12847;DHT22;6492;48.128;8.320;2024-03-06T12:44:29;3.30;51.40
12847;DHT22;6492;48.128;8.320;2024-03-06T12:48:31;3.40;50.40
12847;DHT22;6492;48.128;8.320;2024-03-06T12:52:34;3.40;49.70
12847;DHT22;6492;48.128;8.320;2024-03-06T12:56:39;3.30;48.70
12847;DHT22;6492;48.128;8.320;2024-03-06T13:00:42;3.20;49.20
12847;DHT22;6492;48.128;8.320;2024-03-06T13:04:44;3.10;49.60
12847;DHT22;6492;48.128;8.320;2024-03-06T13:08:47;2.90;49.70
12847;DHT22;6492;48.128;8.320;2024-03-06T13:12:49;2.70;51.90
12847;DHT22;6492;48.128;8.320;2024-03-06T13:16:50;2.60;51.90
12847;DHT22;6492;48.128;8.320;2024-03-06T13:20:52;2.50;53.20
12847;DHT22;6492;48.128;8.320;2024-03-06T13:24:55;2.40;54.90
12847;DHT22;6492;48.128;8.320;2024-03-06T13:28:57;2.40;56.00
12847;DHT22;6492;48.128;8.320;2024-03-06T13:33:00;2.40;57.00
12847;DHT22;6492;48.128;8.320;2024-03-06T13:37:01;2.40;56.70
12847;DHT22;6492;48.128;8.320;2024-03-06T13:41:05;2.40;55.70
12847;DHT22;6492;48.128;8.320;2024-03-06T13:45:07;2.40;55.60
12847;DHT22;6492;48.128;8.320;2024-03-06T13:49:39;2.40;56.00
12847;DHT22;6492;48.128;8.320;2024-03-06T13:53:41;2.50;56.20
12847;DHT22;6492;48.128;8.320;2024-03-06T13:57:44;2.50;55.30
12847;DHT22;6492;48.128;8.320;2024-03-06T14:01:46;2.50;55.30
12847;DHT22;6492;48.128;8.320;2024-03-06T14:05:49;2.50;55.60
12847;DHT22;6492;48.128;8.320;2024-03-06T14:09:51;2.60;56.80
12847;DHT22;6492;48.128;8.320;2024-03-06T14:13:54;2.60;57.20
12847;DHT22;6492;48.128;8.320;2024-03-06T14:17:56;2.70;57.50
12847;DHT22;6492;48.128;8.320;2024-03-06T14:21:58;2.70;57.20
12847;DHT22;6492;48.128;8.320;2024-03-06T14:25:59;2.60;55.10
12847;DHT22;6492;48.128;8.320;2024-03-06T14:30:04;2.50;55.50
12847;DHT22;6492;48.128;8.320;2024-03-06T14:34:07;2.40;55.00
12847;DHT22;6492;48.128;8.320;2024-03-06T14:38:09;2.40;55.30
12847;DHT22;6492;48.128;8.320;2024-03-06T14:42:13;2.20;53.90
12847;DHT22;6492;48.128;8.320;2024-03-06T14:46:16;2.10;54.80
12847;DHT22;6492;48.128;8.320;2024-03-06T14:50:19;2.10;56.40
12847;DHT22;6492;48.128;8.320;2024-03-06T14:54:20;2.10;57.70
12847;DHT22;6492;48.128;8.320;2024-03-06T14:58:23;2.20;57.90
12847;DHT22;6492;48.128;8.320;2024-03-06T15:02:26;2.20;57.50
12847;DHT22;6492;48.128;8.320;2024-03-06T15:06:28;2.10;57.50
12847;DHT22;6492;48.128;8.320;2024-03-06T15:10:30;2.10;58.20
12847;DHT22;6492;48.128;8.320;2024-03-06T15:14:32;2.10;58.90
12847;DHT22;6492;48.128;8.320;2024-03-06T15:18:36;2.10;59.70
12847;DHT22;6492;48.128;8.320;2024-03-06T15:22:38;2.20;59.60
12847;DHT22;6492;48.128;8.320;2024-03-06T15:26:42;2.10;59.40
12847;DHT22;6492;48.128;8.320;2024-03-06T15:30:44;2.10;59.40
12847;DHT22;6492;48.128;8.320;2024-03-06T15:34:47;2.10;60.00
12847;DHT22;6492;48.128;8.320;2024-03-06T15:38:49;2.10;60.70
12847;DHT22;6492;48.128;8.320;2024-03-06T15:42:51;2.10;60.70
12847;DHT22;6492;48.128;8.320;2024-03-06T15:46:52;2.10;60.80
12847;DHT22;6492;48.128;8.320;2024-03-06T15:50:56;2.00;60.00
12847;DHT22;6492;48.128;8.320;2024-03-06T15:54:57;1.90;60.20
12847;DHT22;6492;48.128;8.320;2024-03-06T15:58:59;1.80;60.90
12847;DHT22;6492;48.128;8.320;2024-03-06T16:03:01;1.80;60.90
12847;DHT22;6492;48.128;8.320;2024-03-06T16:07:05;1.70;61.70
12847;DHT22;6492;48.128;8.320;2024-03-06T16:11:07;1.70;61.80
12847;DHT22;6492;48.128;8.320;2024-03-06T16:15:09;1.60;62.00
12847;DHT22;6492;48.128;8.320;2024-03-06T16:19:11;1.50;62.40
12847;DHT22;6492;48.128;8.320;2024-03-06T16:23:14;1.40;62.50
12847;DHT22;6492;48.128;8.320;2024-03-06T16:27:16;1.40;63.20
12847;DHT22;6492;48.128;8.320;2024-03-06T16:31:17;1.30;63.60
12847;DHT22;6492;48.128;8.320;2024-03-06T16:35:20;1.20;63.80
12847;DHT22;6492;48.128;8.320;2024-03-06T16:39:23;1.10;64.20
12847;DHT22;6492;48.128;8.320;2024-03-06T16:43:25;1.10;64.80
12847;DHT22;6492;48.128;8.320;2024-03-06T16:47:26;1.00;65.40
12847;DHT22;6492;48.128;8.320;2024-03-06T16:51:30;1.00;65.70
12847;DHT22;6492;48.128;8.320;2024-03-06T16:55:35;0.90;66.20
12847;DHT22;6492;48.128;8.320;2024-03-06T16:59:36;0.80;66.40
12847;DHT22;6492;48.128;8.320;2024-03-06T17:03:38;0.80;66.80
12847;DHT22;6492;48.128;8.320;2024-03-06T17:07:41;0.80;67.40
12847;DHT22;6492;48.128;8.320;2024-03-06T17:11:45;0.70;67.60
12847;DHT22;6492;48.128;8.320;2024-03-06T17:15:47;0.70;68.00
12847;DHT22;6492;48.128;8.320;2024-03-06T17:19:50;0.70;68.40
12847;DHT22;6492;48.128;8.320;2024-03-06T17:23:52;0.60;68.50
12847;DHT22;6492;48.128;8.320;2024-03-06T17:27:55;0.60;69.10
12847;DHT22;6492;48.128;8.320;2024-03-06T17:32:00;0.60;69.10
12847;DHT22;6492;48.128;8.320;2024-03-06T17:36:02;0.60;69.60
12847;DHT22;6492;48.128;8.320;2024-03-06T17:40:07;0.60;69.80
12847;DHT22;6492;48.128;8.320;2024-03-06T17:44:12;0.60;70.00
12847;DHT22;6492;48.128;8.320;2024-03-06T17:48:14;0.50;70.20
12847;DHT22;6492;48.128;8.320;2024-03-06T17:52:17;0.50;70.30
12847;DHT22;6492;48.128;8.320;2024-03-06T17:56:19;0.50;70.70
12847;DHT22;6492;48.128;8.320;2024-03-06T18:00:23;0.50;70.80
12847;DHT22;6492;48.128;8.320;2024-03-06T18:04:26;0.50;71.10
12847;DHT22;6492;48.128;8.320;2024-03-06T18:08:30;0.50;71.20
12847;DHT22;6492;48.128;8.320;2024-03-06T18:12:34;0.40;71.20
12847;DHT22;6492;48.128;8.320;2024-03-06T18:16:41;0.40;71.40
12847;DHT22;6492;48.128;8.320;2024-03-06T18:20:44;0.40;71.50
12847;DHT22;6492;48.128;8.320;2024-03-06T18:24:46;0.40;71.50
12847;DHT22;6492;48.128;8.320;2024-03-06T18:28:48;0.40;71.60
12847;DHT22;6492;48.128;8.320;2024-03-06T18:32:51;0.50;72.00
12847;DHT22;6492;48.128;8.320;2024-03-06T18:36:54;0.40;71.90
12847;DHT22;6492;48.128;8.320;2024-03-06T18:40:56;0.40;72.10
12847;DHT22;6492;48.128;8.320;2024-03-06T18:44:57;0.40;72.10
12847;DHT22;6492;48.128;8.320;2024-03-06T18:49:03;0.40;72.20
12847;DHT22;6492;48.128;8.320;2024-03-06T18:53:04;0.40;72.30
12847;DHT22;6492;48.128;8.320;2024-03-06T18:57:07;0.50;72.50
12847;DHT22;6492;48.128;8.320;2024-03-06T19:01:14;0.40;72.40
12847;DHT22;6492;48.128;8.320;2024-03-06T19:05:17;0.40;72.50
12847;DHT22;6492;48.128;8.320;2024-03-06T19:09:20;0.40;72.70
12847;DHT22;6492;48.128;8.320;2024-03-06T19:13:23;0.40;72.70
12847;DHT22;6492;48.128;8.320;2024-03-06T19:17:24;0.40;72.80
12847;DHT22;6492;48.128;8.320;2024-03-06T19:21:27;0.40;72.80
12847;DHT22;6492;48.128;8.320;2024-03-06T19:25:29;0.40;72.90
12847;DHT22;6492;48.128;8.320;2024-03-06T19:29:32;0.40;72.90
12847;DHT22;6492;48.128;8.320;2024-03-06T19:33:40;0.40;72.90
12847;DHT22;6492;48.128;8.320;2024-03-06T19:37:44;0.40;73.10
12847;DHT22;6492;48.128;8.320;2024-03-06T19:41:45;0.40;73.20
12847;DHT22;6492;48.128;8.320;2024-03-06T19:45:47;0.40;73.30
12847;DHT22;6492;48.128;8.320;2024-03-06T19:49:52;0.40;74.00
12847;DHT22;6492;48.128;8.320;2024-03-06T19:53:55;0.40;73.30
12847;DHT22;6492;48.128;8.320;2024-03-06T19:57:57;0.40;73.40
12847;DHT22;6492;48.128;8.320;2024-03-06T20:01:59;0.40;73.40
12847;DHT22;6492;48.128;8.320;2024-03-06T20:06:02;0.40;73.50
12847;DHT22;6492;48.128;8.320;2024-03-06T20:10:06;0.40;73.50
12847;DHT22;6492;48.128;8.320;2024-03-06T20:14:09;0.40;73.50
12847;DHT22;6492;48.128;8.320;2024-03-06T20:18:11;0.40;73.50
12847;DHT22;6492;48.128;8.320;2024-03-06T20:22:13;0.40;73.50
12847;DHT22;6492;48.128;8.320;2024-03-06T20:26:16;0.40;73.60
12847;DHT22;6492;48.128;8.320;2024-03-06T20:30:18;0.40;73.70
12847;DHT22;6492;48.128;8.320;2024-03-06T20:34:21;0.40;73.70
12847;DHT22;6492;48.128;8.320;2024-03-06T20:38:28;0.40;73.80
12847;DHT22;6492;48.128;8.320;2024-03-06T20:42:31;0.40;73.80
12847;DHT22;6492;48.128;8.320;2024-03-06T20:46:33;0.40;73.80
12847;DHT22;6492;48.128;8.320;2024-03-06T20:50:35;0.50;74.00
12847;DHT22;6492;48.128;8.320;2024-03-06T20:54:37;0.50;74.00
12847;DHT22;6492;48.128;8.320;2024-03-06T20:58:40;0.50;74.10
12847;DHT22;6492;48.128;8.320;2024-03-06T21:02:42;0.50;74.10
12847;DHT22;6492;48.128;8.320;2024-03-06T21:06:45;0.50;74.10
12847;DHT22;6492;48.128;8.320;2024-03-06T21:10:47;0.50;74.20
12847;DHT22;6492;48.128;8.320;2024-03-06T21:14:51;0.50;74.20
12847;DHT22;6492;48.128;8.320;2024-03-06T21:18:58;0.50;74.30
12847;DHT22;6492;48.128;8.320;2024-03-06T21:23:00;0.50;74.30
12847;DHT22;6492;48.128;8.320;2024-03-06T21:27:02;0.50;74.30
12847;DHT22;6492;48.128;8.320;2024-03-06T21:31:05;0.50;74.40
12847;DHT22;6492;48.128;8.320;2024-03-06T21:35:08;0.50;74.50
12847;DHT22;6492;48.128;8.320;2024-03-06T21:39:10;0.60;74.50
12847;DHT22;6492;48.128;8.320;2024-03-06T21:43:13;0.60;74.50
12847;DHT22;6492;48.128;8.320;2024-03-06T21:47:17;0.60;74.50
12847;DHT22;6492;48.128;8.320;2024-03-06T21:51:19;0.60;74.50
12847;DHT22;6492;48.128;8.320;2024-03-06T21:55:20;0.60;74.60
12847;DHT22;6492;48.128;8.320;2024-03-06T21:59:23;0.70;74.70
12847;DHT22;6492;48.128;8.320;2024-03-06T22:03:26;0.70;74.70
12847;DHT22;6492;48.128;8.320;2024-03-06T22:07:27;0.70;74.80
12847;DHT22;6492;48.128;8.320;2024-03-06T22:11:29;0.70;74.80
12847;DHT22;6492;48.128;8.320;2024-03-06T22:15:31;0.70;74.90
12847;DHT22;6492;48.128;8.320;2024-03-06T22:19:37;0.70;74.90
12847;DHT22;6492;48.128;8.320;2024-03-06T22:23:41;0.70;74.90
12847;DHT22;6492;48.128;8.320;2024-03-06T22:27:42;0.70;75.00
12847;DHT22;6492;48.128;8.320;2024-03-06T22:31:44;0.70;75.00
12847;DHT22;6492;48.128;8.320;2024-03-06T22:35:48;0.80;75.20
12847;DHT22;6492;48.128;8.320;2024-03-06T22:39:50;0.80;75.20
12847;DHT22;6492;48.128;8.320;2024-03-06T22:43:52;0.80;75.20
12847;DHT22;6492;48.128;8.320;2024-03-06T22:47:53;0.90;75.30
12847;DHT22;6492;48.128;8.320;2024-03-06T22:51:56;0.90;75.40
12847;DHT22;6492;48.128;8.320;2024-03-06T22:55:58;0.90;75.40
12847;DHT22;6492;48.128;8.320;2024-03-06T23:00:00;1.00;75.40
12847;DHT22;6492;48.128;8.320;2024-03-06T23:04:07;1.00;75.40
12847;DHT22;6492;48.128;8.320;2024-03-06T23:08:10;1.00;75.50
12847;DHT22;6492;48.128;8.320;2024-03-06T23:12:12;1.10;75.60
12847;DHT22;6492;48.128;8.320;2024-03-06T23:16:14;1.10;75.60
12847;DHT22;6492;48.128;8.320;2024-03-06T23:20:16;1.00;75.50
12847;DHT22;6492;48.128;8.320;2024-03-06T23:24:20;1.00;75.50
12847;DHT22;6492;48.128;8.320;2024-03-06T23:28:22;1.10;75.60
12847;DHT22;6492;48.128;8.320;2024-03-06T23:32:23;1.10;75.60
12847;DHT22;6492;48.128;8.320;2024-03-06T23:36:25;1.10;75.70
12847;DHT22;6492;48.128;8.320;2024-03-06T23:40:28;1.10;75.70
12847;DHT22;6492;48.128;8.320;2024-03-06T23:44:30;1.20;75.80
12847;DHT22;6492;48.128;8.320;2024-03-06T23:48:32;1.20;75.80
12847;DHT22;6492;48.128;8.320;2024-03-06T23:52:34;1.30;75.90
12847;DHT22;6492;48.128;8.320;2024-03-06T23:56:37;1.30;76.00
